sensor_id;sensor_type;location;lat;lon;timestamp;temperature;humidity
12839;DHT22;6486;51.034;5.262;2023-08-30T00:00:31;15.50;70.40
12839;DHT22;6486;51.034;5.262;2023-08-30T00:02:57;15.50;70.40
12839;DHT22;6486;51.034;5.262;2023-08-30T00:05:23;15.50;70.40
12839;DHT22;6486;51.034;5.262;2023-08-30T00:07:48;15.40;70.40
12839;DHT22;6486;51.034;5.262;2023-08-30T00:10:14;15.40;70.60
12839;DHT22;6486;51.034;5.262;2023-08-30T00:12:40;15.30;70.50
12839;DHT22;6486;51.034;5.262;2023-08-30T00:15:06;15.30;70.60
12839;DHT22;6486;51.034;5.262;2023-08-30T00:17:32;15.30;70.70
12839;DHT22;6486;51.034;5.262;2023-08-30T00:19:58;15.20;70.80
12839;DHT22;6486;51.034;5.262;2023-08-30T00:22:25;15.20;70.90
12839;DHT22;6486;51.034;5.262;2023-08-30T00:24:52;15.20;70.80
12839;DHT22;6486;51.034;5.262;2023-08-30T00:27:17;15.20;70.80
12839;DHT22;6486;51.034;5.262;2023-08-30T00:29:46;15.20;70.80
12839;DHT22;6486;51.034;5.262;2023-08-30T00:32:11;15.20;70.90
12839;DHT22;6486;51.034;5.262;2023-08-30T00:34:37;15.20;71.00
12839;DHT22;6486;51.034;5.262;2023-08-30T00:37:03;15.20;71.00
12839;DHT22;6486;51.034;5.262;2023-08-30T00:39:28;15.20;71.00
12839;DHT22;6486;51.034;5.262;2023-08-30T00:41:54;15.20;71.00
12839;DHT22;6486;51.034;5.262;2023-08-30T00:44:20;15.20;71.70
12839;DHT22;6486;51.034;5.262;2023-08-30T00:46:45;15.20;71.10
12839;DHT22;6486;51.034;5.262;2023-08-30T00:49:12;15.20;71.10
12839;DHT22;6486;51.034;5.262;2023-08-30T00:51:37;15.20;71.20
12839;DHT22;6486;51.034;5.262;2023-08-30T00:54:03;15.20;71.20
12839;DHT22;6486;51.034;5.262;2023-08-30T00:56:29;15.30;71.30
12839;DHT22;6486;51.034;5.262;2023-08-30T00:58:56;15.30;71.30
12839;DHT22;6486;51.034;5.262;2023-08-30T01:01:22;15.30;71.30
12839;DHT22;6486;51.034;5.262;2023-08-30T01:03:48;15.30;71.40
12839;DHT22;6486;51.034;5.262;2023-08-30T01:06:13;15.40;71.50
12839;DHT22;6486;51.034;5.262;2023-08-30T01:08:41;15.40;71.50
12839;DHT22;6486;51.034;5.262;2023-08-30T01:11:18;15.40;71.50
12839;DHT22;6486;51.034;5.262;2023-08-30T01:14:09;15.40;71.50
12839;DHT22;6486;51.034;5.262;2023-08-30T01:16:36;15.50;71.70
12839;DHT22;6486;51.034;5.262;2023-08-30T01:24:40;15.50;71.80
12839;DHT22;6486;51.034;5.262;2023-08-30T01:27:13;15.50;71.80
12839;DHT22;6486;51.034;5.262;2023-08-30T01:29:42;15.60;72.00
12839;DHT22;6486;51.034;5.262;2023-08-30T01:32:09;15.60;72.00
12839;DHT22;6486;51.034;5.262;2023-08-30T01:34:36;15.60;72.00
12839;DHT22;6486;51.034;5.262;2023-08-30T01:37:05;15.60;72.00
12839;DHT22;6486;51.034;5.262;2023-08-30T01:39:32;15.60;72.00
12839;DHT22;6486;51.034;5.262;2023-08-30T01:41:59;15.60;72.10
12839;DHT22;6486;51.034;5.262;2023-08-30T01:44:28;15.60;72.20
12839;DHT22;6486;51.034;5.262;2023-08-30T01:46:55;15.70;72.40
12839;DHT22;6486;51.034;5.262;2023-08-30T01:49:22;15.60;72.40
12839;DHT22;6486;51.034;5.262;2023-08-30T01:51:49;15.70;72.40
12839;DHT22;6486;51.034;5.262;2023-08-30T01:54:18;15.70;72.60
12839;DHT22;6486;51.034;5.262;2023-08-30T01:56:45;15.70;72.60
12839;DHT22;6486;51.034;5.262;2023-08-30T01:59:11;15.70;72.60
12839;DHT22;6486;51.034;5.262;2023-08-30T02:01:37;15.70;72.60
12839;DHT22;6486;51.034;5.262;2023-08-30T02:04:02;15.70;72.70
12839;DHT22;6486;51.034;5.262;2023-08-30T02:06:39;15.70;72.70
12839;DHT22;6486;51.034;5.262;2023-08-30T02:11:34;15.80;72.80
12839;DHT22;6486;51.034;5.262;2023-08-30T02:14:01;15.80;72.90
12839;DHT22;6486;51.034;5.262;2023-08-30T02:16:28;15.80;72.90
12839;DHT22;6486;51.034;5.262;2023-08-30T02:18:55;15.80;73.00
12839;DHT22;6486;51.034;5.262;2023-08-30T02:21:21;15.80;73.10
12839;DHT22;6486;51.034;5.262;2023-08-30T02:23:53;15.80;73.10
12839;DHT22;6486;51.034;5.262;2023-08-30T02:26:19;15.80;73.10
12839;DHT22;6486;51.034;5.262;2023-08-30T02:28:45;15.70;73.20
12839;DHT22;6486;51.034;5.262;2023-08-30T02:31:11;15.80;73.40
12839;DHT22;6486;51.034;5.262;2023-08-30T02:33:36;15.80;73.40
12839;DHT22;6486;51.034;5.262;2023-08-30T02:36:05;15.80;73.40
12839;DHT22;6486;51.034;5.262;2023-08-30T02:38:31;15.80;73.40
12839;DHT22;6486;51.034;5.262;2023-08-30T02:40:56;15.80;73.40
12839;DHT22;6486;51.034;5.262;2023-08-30T02:43:22;15.80;73.50
12839;DHT22;6486;51.034;5.262;2023-08-30T02:45:48;15.80;73.50
12839;DHT22;6486;51.034;5.262;2023-08-30T02:48:14;15.80;73.60
12839;DHT22;6486;51.034;5.262;2023-08-30T02:50:40;15.80;73.60
12839;DHT22;6486;51.034;5.262;2023-08-30T02:53:06;15.80;73.60
12839;DHT22;6486;51.034;5.262;2023-08-30T02:55:34;15.80;73.60
12839;DHT22;6486;51.034;5.262;2023-08-30T02:58:00;15.90;74.40
12839;DHT22;6486;51.034;5.262;2023-08-30T03:00:25;15.90;73.80
12839;DHT22;6486;51.034;5.262;2023-08-30T03:02:51;15.80;73.60
12839;DHT22;6486;51.034;5.262;2023-08-30T03:05:17;15.90;73.80
12839;DHT22;6486;51.034;5.262;2023-08-30T03:07:43;15.90;73.80
12839;DHT22;6486;51.034;5.262;2023-08-30T03:10:09;15.80;73.70
12839;DHT22;6486;51.034;5.262;2023-08-30T03:12:35;15.80;73.80
12839;DHT22;6486;51.034;5.262;2023-08-30T03:15:00;15.80;73.80
12839;DHT22;6486;51.034;5.262;2023-08-30T03:17:26;15.70;73.80
12839;DHT22;6486;51.034;5.262;2023-08-30T03:19:52;15.70;73.80
12839;DHT22;6486;51.034;5.262;2023-08-30T03:22:18;15.70;73.90
12839;DHT22;6486;51.034;5.262;2023-08-30T03:24:44;15.70;74.00
12839;DHT22;6486;51.034;5.262;2023-08-30T03:27:10;15.70;74.10
12839;DHT22;6486;51.034;5.262;2023-08-30T03:29:35;15.70;74.20
12839;DHT22;6486;51.034;5.262;2023-08-30T03:32:01;15.70;74.30
12839;DHT22;6486;51.034;5.262;2023-08-30T03:34:27;15.70;74.40
12839;DHT22;6486;51.034;5.262;2023-08-30T03:36:52;15.70;74.50
12839;DHT22;6486;51.034;5.262;2023-08-30T03:39:22;15.70;74.60
12839;DHT22;6486;51.034;5.262;2023-08-30T03:41:50;15.70;74.60
12839;DHT22;6486;51.034;5.262;2023-08-30T03:44:15;15.70;74.60
12839;DHT22;6486;51.034;5.262;2023-08-30T03:46:41;15.70;74.60
12839;DHT22;6486;51.034;5.262;2023-08-30T03:49:07;15.80;74.70
12839;DHT22;6486;51.034;5.262;2023-08-30T03:51:32;15.70;74.70
12839;DHT22;6486;51.034;5.262;2023-08-30T03:53:58;15.70;74.70
12839;DHT22;6486;51.034;5.262;2023-08-30T03:56:24;15.70;74.80
12839;DHT22;6486;51.034;5.262;2023-08-30T03:58:49;15.80;74.90
12839;DHT22;6486;51.034;5.262;2023-08-30T04:01:15;15.80;74.90
12839;DHT22;6486;51.034;5.262;2023-08-30T04:03:41;15.80;75.00
12839;DHT22;6486;51.034;5.262;2023-08-30T04:06:06;15.80;75.00
12839;DHT22;6486;51.034;5.262;2023-08-30T04:08:32;15.80;75.00
12839;DHT22;6486;51.034;5.262;2023-08-30T04:10:58;15.80;75.00
12839;DHT22;6486;51.034;5.262;2023-08-30T04:13:24;15.80;75.10
12839;DHT22;6486;51.034;5.262;2023-08-30T04:15:51;15.80;75.10
12839;DHT22;6486;51.034;5.262;2023-08-30T04:18:17;15.80;75.20
12839;DHT22;6486;51.034;5.262;2023-08-30T04:20:47;15.90;75.30
12839;DHT22;6486;51.034;5.262;2023-08-30T04:23:13;15.90;75.30
12839;DHT22;6486;51.034;5.262;2023-08-30T04:25:39;15.90;75.30
12839;DHT22;6486;51.034;5.262;2023-08-30T04:28:05;15.90;75.40
12839;DHT22;6486;51.034;5.262;2023-08-30T04:30:31;15.90;75.40
12839;DHT22;6486;51.034;5.262;2023-08-30T04:32:56;15.90;75.40
12839;DHT22;6486;51.034;5.262;2023-08-30T04:35:22;15.90;75.40
12839;DHT22;6486;51.034;5.262;2023-08-30T04:37:48;16.00;75.50
12839;DHT22;6486;51.034;5.262;2023-08-30T04:40:14;16.00;75.50
12839;DHT22;6486;51.034;5.262;2023-08-30T04:42:40;16.00;75.50
12839;DHT22;6486;51.034;5.262;2023-08-30T04:45:06;16.00;75.50
12839;DHT22;6486;51.034;5.262;2023-08-30T04:47:33;16.00;75.50
12839;DHT22;6486;51.034;5.262;2023-08-30T04:49:59;16.00;75.50
12839;DHT22;6486;51.034;5.262;2023-08-30T04:52:25;16.00;75.60
12839;DHT22;6486;51.034;5.262;2023-08-30T04:54:50;16.00;75.70
12839;DHT22;6486;51.034;5.262;2023-08-30T04:57:17;16.00;75.70
12839;DHT22;6486;51.034;5.262;2023-08-30T04:59:46;16.00;75.70
12839;DHT22;6486;51.034;5.262;2023-08-30T05:02:12;16.00;75.70
12839;DHT22;6486;51.034;5.262;2023-08-30T05:04:38;16.00;75.70
12839;DHT22;6486;51.034;5.262;2023-08-30T05:07:03;16.00;75.70
12839;DHT22;6486;51.034;5.262;2023-08-30T05:09:30;16.00;75.70
12839;DHT22;6486;51.034;5.262;2023-08-30T05:11:56;16.10;75.80
12839;DHT22;6486;51.034;5.262;2023-08-30T05:14:22;16.10;75.80
12839;DHT22;6486;51.034;5.262;2023-08-30T05:16:49;16.10;75.80
12839;DHT22;6486;51.034;5.262;2023-08-30T05:19:14;16.10;75.90
12839;DHT22;6486;51.034;5.262;2023-08-30T05:21:42;16.10;75.90
12839;DHT22;6486;51.034;5.262;2023-08-30T05:24:08;16.10;75.90
12839;DHT22;6486;51.034;5.262;2023-08-30T05:26:34;16.10;76.00
12839;DHT22;6486;51.034;5.262;2023-08-30T05:29:00;16.10;75.90
12839;DHT22;6486;51.034;5.262;2023-08-30T05:31:25;16.20;75.90
12839;DHT22;6486;51.034;5.262;2023-08-30T05:33:51;16.20;75.90
12839;DHT22;6486;51.034;5.262;2023-08-30T05:36:17;16.30;75.90
12839;DHT22;6486;51.034;5.262;2023-08-30T05:38:43;16.30;75.90
12839;DHT22;6486;51.034;5.262;2023-08-30T05:41:09;16.30;75.80
12839;DHT22;6486;51.034;5.262;2023-08-30T05:43:35;16.30;75.80
12839;DHT22;6486;51.034;5.262;2023-08-30T05:46:00;16.30;75.80
12839;DHT22;6486;51.034;5.262;2023-08-30T05:48:30;16.30;75.80
12839;DHT22;6486;51.034;5.262;2023-08-30T05:50:55;16.30;75.90
12839;DHT22;6486;51.034;5.262;2023-08-30T05:53:21;16.30;75.80
12839;DHT22;6486;51.034;5.262;2023-08-30T05:55:47;16.30;75.90
12839;DHT22;6486;51.034;5.262;2023-08-30T05:58:12;16.40;76.00
12839;DHT22;6486;51.034;5.262;2023-08-30T06:00:40;16.40;75.90
12839;DHT22;6486;51.034;5.262;2023-08-30T06:03:05;16.40;75.90
12839;DHT22;6486;51.034;5.262;2023-08-30T06:05:31;16.40;75.90
12839;DHT22;6486;51.034;5.262;2023-08-30T06:07:56;16.50;76.00
12839;DHT22;6486;51.034;5.262;2023-08-30T06:10:23;16.50;76.00
12839;DHT22;6486;51.034;5.262;2023-08-30T06:12:48;16.50;76.00
12839;DHT22;6486;51.034;5.262;2023-08-30T06:15:14;16.50;76.00
12839;DHT22;6486;51.034;5.262;2023-08-30T06:17:40;16.60;76.10
12839;DHT22;6486;51.034;5.262;2023-08-30T06:20:06;16.60;75.90
12839;DHT22;6486;51.034;5.262;2023-08-30T06:22:32;16.50;75.90
12839;DHT22;6486;51.034;5.262;2023-08-30T06:24:57;16.50;76.00
12839;DHT22;6486;51.034;5.262;2023-08-30T06:27:23;16.40;75.90
12839;DHT22;6486;51.034;5.262;2023-08-30T06:29:49;16.40;76.00
12839;DHT22;6486;51.034;5.262;2023-08-30T06:32:16;16.40;75.90
12839;DHT22;6486;51.034;5.262;2023-08-30T06:34:42;16.30;75.90
12839;DHT22;6486;51.034;5.262;2023-08-30T06:37:08;16.30;76.00
12839;DHT22;6486;51.034;5.262;2023-08-30T06:39:34;16.30;75.90
12839;DHT22;6486;51.034;5.262;2023-08-30T06:42:01;16.30;75.90
12839;DHT22;6486;51.034;5.262;2023-08-30T06:44:26;16.30;75.90
12839;DHT22;6486;51.034;5.262;2023-08-30T06:46:52;16.30;75.80
12839;DHT22;6486;51.034;5.262;2023-08-30T06:49:18;16.30;75.80
12839;DHT22;6486;51.034;5.262;2023-08-30T06:51:43;16.30;75.80
12839;DHT22;6486;51.034;5.262;2023-08-30T06:54:09;16.30;75.80
12839;DHT22;6486;51.034;5.262;2023-08-30T06:56:35;16.30;75.80
12839;DHT22;6486;51.034;5.262;2023-08-30T06:59:00;16.30;75.90
12839;DHT22;6486;51.034;5.262;2023-08-30T07:01:26;16.30;75.90
12839;DHT22;6486;51.034;5.262;2023-08-30T07:03:51;16.40;76.00
12839;DHT22;6486;51.034;5.262;2023-08-30T07:06:17;16.30;75.90
12839;DHT22;6486;51.034;5.262;2023-08-30T07:08:43;16.30;76.00
12839;DHT22;6486;51.034;5.262;2023-08-30T07:11:09;16.30;76.20
12839;DHT22;6486;51.034;5.262;2023-08-30T07:13:36;16.30;76.20
12839;DHT22;6486;51.034;5.262;2023-08-30T07:16:01;16.30;76.80
12839;DHT22;6486;51.034;5.262;2023-08-30T07:18:27;16.20;76.10
12839;DHT22;6486;51.034;5.262;2023-08-30T07:20:52;16.20;76.10
12839;DHT22;6486;51.034;5.262;2023-08-30T07:23:18;16.20;76.20
12839;DHT22;6486;51.034;5.262;2023-08-30T07:25:44;16.20;76.30
12839;DHT22;6486;51.034;5.262;2023-08-30T07:28:10;16.20;76.20
12839;DHT22;6486;51.034;5.262;2023-08-30T07:30:36;16.30;76.40
12839;DHT22;6486;51.034;5.262;2023-08-30T07:33:03;16.30;76.30
12839;DHT22;6486;51.034;5.262;2023-08-30T07:35:30;16.40;76.40
12839;DHT22;6486;51.034;5.262;2023-08-30T07:37:56;16.50;76.30
12839;DHT22;6486;51.034;5.262;2023-08-30T07:40:22;16.50;76.20
12839;DHT22;6486;51.034;5.262;2023-08-30T07:42:51;16.50;76.10
12839;DHT22;6486;51.034;5.262;2023-08-30T07:45:17;16.60;76.10
12839;DHT22;6486;51.034;5.262;2023-08-30T07:47:43;16.50;76.00
12839;DHT22;6486;51.034;5.262;2023-08-30T07:50:09;16.50;76.10
12839;DHT22;6486;51.034;5.262;2023-08-30T07:52:35;16.50;76.10
12839;DHT22;6486;51.034;5.262;2023-08-30T07:55:00;16.50;76.10
12839;DHT22;6486;51.034;5.262;2023-08-30T07:57:26;16.40;76.10
12839;DHT22;6486;51.034;5.262;2023-08-30T07:59:52;16.40;76.30
12839;DHT22;6486;51.034;5.262;2023-08-30T08:02:18;16.40;76.50
12839;DHT22;6486;51.034;5.262;2023-08-30T08:04:43;16.30;76.50
12839;DHT22;6486;51.034;5.262;2023-08-30T08:07:09;16.30;76.60
12839;DHT22;6486;51.034;5.262;2023-08-30T08:09:35;16.30;76.70
12839;DHT22;6486;51.034;5.262;2023-08-30T08:12:00;16.40;76.80
12839;DHT22;6486;51.034;5.262;2023-08-30T08:14:26;16.40;76.90
12839;DHT22;6486;51.034;5.262;2023-08-30T08:16:52;16.30;77.00
12839;DHT22;6486;51.034;5.262;2023-08-30T08:19:17;16.30;77.30
12839;DHT22;6486;51.034;5.262;2023-08-30T08:21:43;16.20;77.40
12839;DHT22;6486;51.034;5.262;2023-08-30T08:24:09;16.20;77.70
12839;DHT22;6486;51.034;5.262;2023-08-30T08:26:34;16.20;78.00
12839;DHT22;6486;51.034;5.262;2023-08-30T08:29:00;16.20;78.10
12839;DHT22;6486;51.034;5.262;2023-08-30T08:31:26;16.20;78.20
12839;DHT22;6486;51.034;5.262;2023-08-30T08:34:07;16.10;78.30
12839;DHT22;6486;51.034;5.262;2023-08-30T08:36:33;16.10;78.30
12839;DHT22;6486;51.034;5.262;2023-08-30T08:38:59;16.10;78.60
12839;DHT22;6486;51.034;5.262;2023-08-30T08:41:32;16.10;79.00
12839;DHT22;6486;51.034;5.262;2023-08-30T08:44:00;16.00;79.10
12839;DHT22;6486;51.034;5.262;2023-08-30T08:46:28;16.00;79.30
12839;DHT22;6486;51.034;5.262;2023-08-30T08:48:56;16.00;79.40
12839;DHT22;6486;51.034;5.262;2023-08-30T08:51:23;16.00;79.60
12839;DHT22;6486;51.034;5.262;2023-08-30T08:53:50;16.00;79.70
12839;DHT22;6486;51.034;5.262;2023-08-30T08:56:16;16.00;80.10
12839;DHT22;6486;51.034;5.262;2023-08-30T08:58:43;16.00;80.30
12839;DHT22;6486;51.034;5.262;2023-08-30T09:01:09;16.00;80.40
12839;DHT22;6486;51.034;5.262;2023-08-30T09:03:35;16.10;80.70
12839;DHT22;6486;51.034;5.262;2023-08-30T09:06:03;16.10;80.70
12839;DHT22;6486;51.034;5.262;2023-08-30T09:08:28;16.20;80.90
12839;DHT22;6486;51.034;5.262;2023-08-30T09:10:54;16.20;81.20
12839;DHT22;6486;51.034;5.262;2023-08-30T09:13:20;16.20;81.30
12839;DHT22;6486;51.034;5.262;2023-08-30T09:15:48;16.20;81.40
12839;DHT22;6486;51.034;5.262;2023-08-30T09:18:15;16.20;81.60
12839;DHT22;6486;51.034;5.262;2023-08-30T09:20:41;16.30;81.80
12839;DHT22;6486;51.034;5.262;2023-08-30T09:23:19;16.30;81.70
12839;DHT22;6486;51.034;5.262;2023-08-30T09:25:46;16.40;81.70
12839;DHT22;6486;51.034;5.262;2023-08-30T09:28:12;16.50;81.90
12839;DHT22;6486;51.034;5.262;2023-08-30T09:30:40;16.50;81.80
12839;DHT22;6486;51.034;5.262;2023-08-30T09:33:05;16.50;81.80
12839;DHT22;6486;51.034;5.262;2023-08-30T09:35:31;16.60;81.90
12839;DHT22;6486;51.034;5.262;2023-08-30T09:37:57;16.60;81.90
12839;DHT22;6486;51.034;5.262;2023-08-30T09:40:23;16.60;82.00
12839;DHT22;6486;51.034;5.262;2023-08-30T09:42:48;16.60;81.90
12839;DHT22;6486;51.034;5.262;2023-08-30T09:45:23;16.60;82.00
12839;DHT22;6486;51.034;5.262;2023-08-30T09:47:49;16.70;82.10
12839;DHT22;6486;51.034;5.262;2023-08-30T09:50:20;16.60;82.10
12839;DHT22;6486;51.034;5.262;2023-08-30T09:52:49;16.60;82.20
12839;DHT22;6486;51.034;5.262;2023-08-30T09:55:18;16.60;82.20
12839;DHT22;6486;51.034;5.262;2023-08-30T09:57:44;16.60;82.40
12839;DHT22;6486;51.034;5.262;2023-08-30T10:00:11;16.70;82.60
12839;DHT22;6486;51.034;5.262;2023-08-30T10:02:43;16.60;82.60
12839;DHT22;6486;51.034;5.262;2023-08-30T10:05:12;16.60;82.90
12839;DHT22;6486;51.034;5.262;2023-08-30T10:07:39;16.60;83.00
12839;DHT22;6486;51.034;5.262;2023-08-30T10:10:05;16.60;83.10
12839;DHT22;6486;51.034;5.262;2023-08-30T10:12:34;16.60;83.20
12839;DHT22;6486;51.034;5.262;2023-08-30T10:15:00;16.60;83.20
12839;DHT22;6486;51.034;5.262;2023-08-30T10:17:32;16.60;83.20
12839;DHT22;6486;51.034;5.262;2023-08-30T10:19:59;16.70;83.40
12839;DHT22;6486;51.034;5.262;2023-08-30T10:22:25;16.70;83.60
12839;DHT22;6486;51.034;5.262;2023-08-30T10:24:53;16.80;83.70
12839;DHT22;6486;51.034;5.262;2023-08-30T10:27:20;16.90;83.80
12839;DHT22;6486;51.034;5.262;2023-08-30T10:29:48;17.00;83.60
12839;DHT22;6486;51.034;5.262;2023-08-30T10:32:19;17.20;83.60
12839;DHT22;6486;51.034;5.262;2023-08-30T10:34:48;17.30;83.60
12839;DHT22;6486;51.034;5.262;2023-08-30T10:37:23;17.30;83.50
12839;DHT22;6486;51.034;5.262;2023-08-30T10:39:52;17.30;83.60
12839;DHT22;6486;51.034;5.262;2023-08-30T10:42:22;17.20;84.20
12839;DHT22;6486;51.034;5.262;2023-08-30T10:47:27;17.20;83.50
12839;DHT22;6486;51.034;5.262;2023-08-30T10:49:58;17.20;83.60
12839;DHT22;6486;51.034;5.262;2023-08-30T10:52:25;17.20;83.60
12839;DHT22;6486;51.034;5.262;2023-08-30T10:54:51;17.20;83.60
12839;DHT22;6486;51.034;5.262;2023-08-30T10:57:24;17.30;83.60
12839;DHT22;6486;51.034;5.262;2023-08-30T11:00:19;17.30;83.50
12839;DHT22;6486;51.034;5.262;2023-08-30T11:02:47;17.40;83.40
12839;DHT22;6486;51.034;5.262;2023-08-30T11:05:15;17.50;83.40
12839;DHT22;6486;51.034;5.262;2023-08-30T11:07:45;17.60;83.30
12839;DHT22;6486;51.034;5.262;2023-08-30T11:10:12;17.70;83.30
12839;DHT22;6486;51.034;5.262;2023-08-30T11:12:40;17.80;83.20
12839;DHT22;6486;51.034;5.262;2023-08-30T11:15:07;17.90;83.10
12839;DHT22;6486;51.034;5.262;2023-08-30T11:17:34;17.90;83.00
12839;DHT22;6486;51.034;5.262;2023-08-30T11:20:10;18.00;83.00
12839;DHT22;6486;51.034;5.262;2023-08-30T11:22:43;17.90;82.90
12839;DHT22;6486;51.034;5.262;2023-08-30T11:25:10;17.90;83.00
12839;DHT22;6486;51.034;5.262;2023-08-30T11:27:37;17.90;83.00
12839;DHT22;6486;51.034;5.262;2023-08-30T11:30:04;17.80;82.90
12839;DHT22;6486;51.034;5.262;2023-08-30T11:32:34;17.80;83.10
12839;DHT22;6486;51.034;5.262;2023-08-30T11:35:00;17.80;83.30
12839;DHT22;6486;51.034;5.262;2023-08-30T11:37:27;17.70;83.20
12839;DHT22;6486;51.034;5.262;2023-08-30T11:39:54;17.70;83.10
12839;DHT22;6486;51.034;5.262;2023-08-30T11:42:20;17.70;83.20
12839;DHT22;6486;51.034;5.262;2023-08-30T11:44:46;17.70;83.30
12839;DHT22;6486;51.034;5.262;2023-08-30T11:47:26;17.60;83.20
12839;DHT22;6486;51.034;5.262;2023-08-30T11:49:54;17.70;83.30
12839;DHT22;6486;51.034;5.262;2023-08-30T11:52:21;17.70;83.30
12839;DHT22;6486;51.034;5.262;2023-08-30T11:54:48;17.70;83.30
12839;DHT22;6486;51.034;5.262;2023-08-30T11:57:15;17.80;83.30
12839;DHT22;6486;51.034;5.262;2023-08-30T11:59:40;17.80;83.20
12839;DHT22;6486;51.034;5.262;2023-08-30T12:02:07;17.90;83.10
12839;DHT22;6486;51.034;5.262;2023-08-30T12:04:39;18.00;83.10
12839;DHT22;6486;51.034;5.262;2023-08-30T12:07:05;18.00;83.00
12839;DHT22;6486;51.034;5.262;2023-08-30T12:09:31;18.10;82.90
12839;DHT22;6486;51.034;5.262;2023-08-30T12:12:10;18.20;82.90
12839;DHT22;6486;51.034;5.262;2023-08-30T12:14:37;18.30;82.90
12839;DHT22;6486;51.034;5.262;2023-08-30T12:17:03;18.30;82.70
12839;DHT22;6486;51.034;5.262;2023-08-30T12:19:29;18.20;82.20
12839;DHT22;6486;51.034;5.262;2023-08-30T12:21:55;18.20;82.20
12839;DHT22;6486;51.034;5.262;2023-08-30T12:24:20;18.10;82.30
12839;DHT22;6486;51.034;5.262;2023-08-30T12:26:48;18.00;82.40
12839;DHT22;6486;51.034;5.262;2023-08-30T12:29:13;17.90;82.40
12839;DHT22;6486;51.034;5.262;2023-08-30T12:31:39;17.90;82.60
12839;DHT22;6486;51.034;5.262;2023-08-30T12:34:05;17.90;82.70
12839;DHT22;6486;51.034;5.262;2023-08-30T12:36:30;18.00;82.70
12839;DHT22;6486;51.034;5.262;2023-08-30T12:38:57;18.00;82.60
12839;DHT22;6486;51.034;5.262;2023-08-30T12:41:23;18.00;82.50
12839;DHT22;6486;51.034;5.262;2023-08-30T12:43:49;18.10;82.60
12839;DHT22;6486;51.034;5.262;2023-08-30T12:46:16;18.00;82.40
12839;DHT22;6486;51.034;5.262;2023-08-30T12:48:41;18.00;82.50
12839;DHT22;6486;51.034;5.262;2023-08-30T12:51:07;17.80;82.30
12839;DHT22;6486;51.034;5.262;2023-08-30T12:53:32;18.00;82.50
12839;DHT22;6486;51.034;5.262;2023-08-30T12:55:59;18.00;82.40
12839;DHT22;6486;51.034;5.262;2023-08-30T12:58:24;18.00;82.30
12839;DHT22;6486;51.034;5.262;2023-08-30T13:00:50;18.00;82.40
12839;DHT22;6486;51.034;5.262;2023-08-30T13:03:16;18.00;82.40
12839;DHT22;6486;51.034;5.262;2023-08-30T13:05:41;18.00;82.40
12839;DHT22;6486;51.034;5.262;2023-08-30T13:08:07;18.10;82.30
12839;DHT22;6486;51.034;5.262;2023-08-30T13:10:33;18.20;82.30
12839;DHT22;6486;51.034;5.262;2023-08-30T13:12:59;18.30;81.80
12839;DHT22;6486;51.034;5.262;2023-08-30T13:15:24;18.50;81.80
12839;DHT22;6486;51.034;5.262;2023-08-30T13:17:50;18.60;81.70
12839;DHT22;6486;51.034;5.262;2023-08-30T13:20:16;18.70;81.20
12839;DHT22;6486;51.034;5.262;2023-08-30T13:22:42;18.80;81.10
12839;DHT22;6486;51.034;5.262;2023-08-30T13:25:07;19.10;80.90
12839;DHT22;6486;51.034;5.262;2023-08-30T13:27:34;19.50;80.60
12839;DHT22;6486;51.034;5.262;2023-08-30T13:30:00;19.80;79.80
12839;DHT22;6486;51.034;5.262;2023-08-30T13:32:25;20.10;78.10
12839;DHT22;6486;51.034;5.262;2023-08-30T13:34:52;20.30;77.80
12839;DHT22;6486;51.034;5.262;2023-08-30T13:37:18;20.60;77.40
12839;DHT22;6486;51.034;5.262;2023-08-30T13:39:43;20.70;76.90
12839;DHT22;6486;51.034;5.262;2023-08-30T13:42:09;20.90;75.70
12839;DHT22;6486;51.034;5.262;2023-08-30T13:44:35;20.90;74.90
12839;DHT22;6486;51.034;5.262;2023-08-30T13:47:06;21.10;74.70
12839;DHT22;6486;51.034;5.262;2023-08-30T13:49:32;21.20;71.90
12839;DHT22;6486;51.034;5.262;2023-08-30T13:51:58;21.40;71.60
12839;DHT22;6486;51.034;5.262;2023-08-30T13:54:24;21.50;70.30
12839;DHT22;6486;51.034;5.262;2023-08-30T13:56:50;21.70;69.90
12839;DHT22;6486;51.034;5.262;2023-08-30T13:59:16;21.80;69.10
12839;DHT22;6486;51.034;5.262;2023-08-30T14:01:42;21.90;67.80
12839;DHT22;6486;51.034;5.262;2023-08-30T14:04:08;22.10;67.10
12839;DHT22;6486;51.034;5.262;2023-08-30T14:06:34;22.20;66.10
12839;DHT22;6486;51.034;5.262;2023-08-30T14:09:00;22.30;64.80
12839;DHT22;6486;51.034;5.262;2023-08-30T14:11:25;22.30;64.10
12839;DHT22;6486;51.034;5.262;2023-08-30T14:13:51;22.40;63.30
12839;DHT22;6486;51.034;5.262;2023-08-30T14:16:17;22.50;63.10
12839;DHT22;6486;51.034;5.262;2023-08-30T14:18:43;22.60;62.40
12839;DHT22;6486;51.034;5.262;2023-08-30T14:21:09;22.40;61.20
12839;DHT22;6486;51.034;5.262;2023-08-30T14:23:35;22.30;61.50
12839;DHT22;6486;51.034;5.262;2023-08-30T14:26:05;22.20;62.40
12839;DHT22;6486;51.034;5.262;2023-08-30T14:28:35;22.10;61.20
12839;DHT22;6486;51.034;5.262;2023-08-30T14:31:02;22.20;61.00
12839;DHT22;6486;51.034;5.262;2023-08-30T14:33:29;22.20;60.50
12839;DHT22;6486;51.034;5.262;2023-08-30T14:35:54;22.40;60.60
12839;DHT22;6486;51.034;5.262;2023-08-30T14:38:21;22.60;60.10
12839;DHT22;6486;51.034;5.262;2023-08-30T14:40:58;22.80;60.30
12839;DHT22;6486;51.034;5.262;2023-08-30T14:43:24;23.00;59.50
12839;DHT22;6486;51.034;5.262;2023-08-30T14:45:50;23.20;59.10
12839;DHT22;6486;51.034;5.262;2023-08-30T14:48:15;23.40;58.40
12839;DHT22;6486;51.034;5.262;2023-08-30T14:50:41;23.40;57.40
12839;DHT22;6486;51.034;5.262;2023-08-30T14:53:07;23.30;57.40
12839;DHT22;6486;51.034;5.262;2023-08-30T14:55:33;23.00;56.60
12839;DHT22;6486;51.034;5.262;2023-08-30T14:57:58;22.80;56.90
12839;DHT22;6486;51.034;5.262;2023-08-30T15:00:24;22.50;57.20
12839;DHT22;6486;51.034;5.262;2023-08-30T15:02:50;22.50;57.70
12839;DHT22;6486;51.034;5.262;2023-08-30T15:05:16;22.70;58.20
12839;DHT22;6486;51.034;5.262;2023-08-30T15:07:41;22.60;58.60
12839;DHT22;6486;51.034;5.262;2023-08-30T15:10:07;22.50;58.70
12839;DHT22;6486;51.034;5.262;2023-08-30T15:12:33;22.60;58.70
12839;DHT22;6486;51.034;5.262;2023-08-30T15:14:58;22.70;58.90
12839;DHT22;6486;51.034;5.262;2023-08-30T15:17:24;22.50;59.10
12839;DHT22;6486;51.034;5.262;2023-08-30T15:19:50;22.30;59.40
12839;DHT22;6486;51.034;5.262;2023-08-30T15:22:16;22.10;59.70
12839;DHT22;6486;51.034;5.262;2023-08-30T15:24:42;21.90;59.50
12839;DHT22;6486;51.034;5.262;2023-08-30T15:27:07;21.70;59.00
12839;DHT22;6486;51.034;5.262;2023-08-30T15:29:33;21.50;59.00
12839;DHT22;6486;51.034;5.262;2023-08-30T15:31:59;21.40;59.00
12839;DHT22;6486;51.034;5.262;2023-08-30T15:34:24;21.40;59.70
12839;DHT22;6486;51.034;5.262;2023-08-30T15:36:50;21.70;60.50
12839;DHT22;6486;51.034;5.262;2023-08-30T15:39:16;22.10;61.30
12839;DHT22;6486;51.034;5.262;2023-08-30T15:41:44;22.20;60.40
12839;DHT22;6486;51.034;5.262;2023-08-30T15:44:10;22.20;59.70
12839;DHT22;6486;51.034;5.262;2023-08-30T15:46:36;22.40;60.00
12839;DHT22;6486;51.034;5.262;2023-08-30T15:49:02;22.80;59.50
12839;DHT22;6486;51.034;5.262;2023-08-30T15:51:28;23.40;59.70